Terminal Aerodrome Forecast
Issued by NWS Mt. Holly, NJ

Home | Current Version | Previous Version | Text Only | Print | Product List | Glossary On
Versions: 1 2 3 4 5 6 7 8 9 10 11 12 13 14 15 16 17 18 19 20 21 22 23 24 25
000
FTUS41 KPHI 220900 AAA
TAFPHL
TAF AMD
KPHL 220912Z 2209/2312 33004KT P6SM BKN030 OVC080
     FM221200 02004KT P6SM BKN030 OVC080
     FM221600 08005KT P6SM SCT025 OVC060
      TEMPO 2217/2220 6SM -RA
     FM222000 07004KT 5SM -RA BKN025 OVC050
     FM230100 06004KT 3SM -RA BR BKN007 OVC015
     FM230600 05006KT 2SM -RADZ BR OVC004=

USA.gov is the U.S. government's official web portal to all federal, state and local government web resources and services.